X  Tanca Dades meteorològiques de l'aviació METAR     EDVE Braunschweig-Wolfsburg Airport
Temperatura
12°C Temperatura
11°C Rosada
94% Humitat



Vent
8 KM/H
5 MPH
2 M/S
4 NUS



210°
SSO
Condicions actuals

Majoritàriament núvols dispersos Majoritàriament núvols dispersos
Pressió 1010.92 (hPa) - 29.85 (inHg)
Visibilitat 6.2 (milla) - 10 (km)
Aeroport
Codi aeroport EDVE

Ubicació: Braunschweig-Wolfsburg Airport
Distància: 35 (km)

Metar:
EDVE 232350Z AUTO 21004KT 9999 SCT018/// OVC086/// 12/11 Q1011

Temps: 24-10-2020 01:50 CEST